sensor_id;sensor_type;location;lat;lon;timestamp;P1;durP1;ratioP1;P2;durP2;ratioP2
21758;SDS011;11041;50.854;20.580;2023-05-07T00:01:12;2.00;;;1.90;;
21758;SDS011;11041;50.854;20.580;2023-05-07T00:03:38;2.00;;;1.90;;
21758;SDS011;11041;50.854;20.580;2023-05-07T00:06:05;2.35;;;1.75;;
21758;SDS011;11041;50.854;20.580;2023-05-07T00:08:31;1.95;;;1.73;;
21758;SDS011;11041;50.854;20.580;2023-05-07T00:10:58;2.92;;;1.60;;
21758;SDS011;11041;50.854;20.580;2023-05-07T00:13:24;2.03;;;1.60;;
21758;SDS011;11041;50.854;20.580;2023-05-07T00:15:51;1.60;;;1.50;;
21758;SDS011;11041;50.854;20.580;2023-05-07T00:18:17;2.95;;;1.67;;
21758;SDS011;11041;50.854;20.580;2023-05-07T00:20:46;2.97;;;1.55;;
21758;SDS011;11041;50.854;20.580;2023-05-07T00:23:12;4.80;;;1.95;;
21758;SDS011;11041;50.854;20.580;2023-05-07T00:25:39;2.95;;;1.70;;
21758;SDS011;11041;50.854;20.580;2023-05-07T00:28:05;1.83;;;1.65;;
21758;SDS011;11041;50.854;20.580;2023-05-07T00:30:32;1.85;;;1.70;;
21758;SDS011;11041;50.854;20.580;2023-05-07T00:32:58;1.60;;;1.50;;
21758;SDS011;11041;50.854;20.580;2023-05-07T00:35:24;2.08;;;1.63;;
21758;SDS011;11041;50.854;20.580;2023-05-07T00:37:51;1.85;;;1.70;;
21758;SDS011;11041;50.854;20.580;2023-05-07T00:40:17;2.03;;;1.50;;
21758;SDS011;11041;50.854;20.580;2023-05-07T00:42:44;1.50;;;1.40;;
21758;SDS011;11041;50.854;20.580;2023-05-07T00:45:13;1.70;;;1.60;;
21758;SDS011;11041;50.854;20.580;2023-05-07T00:47:40;1.83;;;1.60;;
21758;SDS011;11041;50.854;20.580;2023-05-07T00:50:08;2.22;;;1.40;;
21758;SDS011;11041;50.854;20.580;2023-05-07T00:52:36;1.73;;;1.55;;
21758;SDS011;11041;50.854;20.580;2023-05-07T00:55:05;2.17;;;1.50;;
21758;SDS011;11041;50.854;20.580;2023-05-07T00:57:36;2.33;;;1.70;;
21758;SDS011;11041;50.854;20.580;2023-05-07T01:00:06;2.25;;;1.70;;
21758;SDS011;11041;50.854;20.580;2023-05-07T01:02:35;1.80;;;1.70;;
21758;SDS011;11041;50.854;20.580;2023-05-07T01:05:03;1.60;;;1.48;;
21758;SDS011;11041;50.854;20.580;2023-05-07T01:07:33;1.90;;;1.58;;
21758;SDS011;11041;50.854;20.580;2023-05-07T01:10:03;1.52;;;1.40;;
21758;SDS011;11041;50.854;20.580;2023-05-07T01:12:32;5.00;;;1.80;;
21758;SDS011;11041;50.854;20.580;2023-05-07T01:15:01;1.77;;;1.65;;
21758;SDS011;11041;50.854;20.580;2023-05-07T01:17:40;1.75;;;1.65;;
21758;SDS011;11041;50.854;20.580;2023-05-07T01:20:08;2.08;;;1.85;;
21758;SDS011;11041;50.854;20.580;2023-05-07T01:22:38;2.13;;;1.92;;
21758;SDS011;11041;50.854;20.580;2023-05-07T01:25:06;1.58;;;1.48;;
21758;SDS011;11041;50.854;20.580;2023-05-07T01:27:34;2.17;;;1.90;;
21758;SDS011;11041;50.854;20.580;2023-05-07T01:30:03;1.77;;;1.52;;
21758;SDS011;11041;50.854;20.580;2023-05-07T01:32:43;1.85;;;1.75;;
21758;SDS011;11041;50.854;20.580;2023-05-07T01:35:37;2.13;;;1.92;;
21758;SDS011;11041;50.854;20.580;2023-05-07T01:38:09;2.13;;;1.50;;
21758;SDS011;11041;50.854;20.580;2023-05-07T01:40:37;1.70;;;1.60;;
21758;SDS011;11041;50.854;20.580;2023-05-07T01:43:03;2.22;;;1.60;;
21758;SDS011;11041;50.854;20.580;2023-05-07T01:45:32;2.38;;;1.80;;
21758;SDS011;11041;50.854;20.580;2023-05-07T01:48:01;3.70;;;1.90;;
21758;SDS011;11041;50.854;20.580;2023-05-07T01:50:29;1.70;;;1.60;;
21758;SDS011;11041;50.854;20.580;2023-05-07T01:52:57;1.67;;;1.58;;
21758;SDS011;11041;50.854;20.580;2023-05-07T01:55:24;4.20;;;2.00;;
21758;SDS011;11041;50.854;20.580;2023-05-07T01:57:50;3.38;;;1.90;;
21758;SDS011;11041;50.854;20.580;2023-05-07T02:00:17;1.40;;;1.30;;
21758;SDS011;11041;50.854;20.580;2023-05-07T02:02:44;2.42;;;1.83;;
21758;SDS011;11041;50.854;20.580;2023-05-07T02:05:11;2.05;;;1.80;;
21758;SDS011;11041;50.854;20.580;2023-05-07T02:07:37;1.80;;;1.70;;
21758;SDS011;11041;50.854;20.580;2023-05-07T02:10:04;1.50;;;1.40;;
21758;SDS011;11041;50.854;20.580;2023-05-07T02:12:31;2.28;;;1.80;;
21758;SDS011;11041;50.854;20.580;2023-05-07T02:14:58;1.70;;;1.58;;
21758;SDS011;11041;50.854;20.580;2023-05-07T02:17:24;1.85;;;1.75;;
21758;SDS011;11041;50.854;20.580;2023-05-07T02:19:51;2.33;;;2.13;;
21758;SDS011;11041;50.854;20.580;2023-05-07T02:22:18;2.80;;;1.60;;
21758;SDS011;11041;50.854;20.580;2023-05-07T02:24:44;2.33;;;1.63;;
21758;SDS011;11041;50.854;20.580;2023-05-07T02:27:11;2.20;;;1.77;;
21758;SDS011;11041;50.854;20.580;2023-05-07T02:29:37;1.77;;;1.60;;
21758;SDS011;11041;50.854;20.580;2023-05-07T02:32:04;2.72;;;1.75;;
21758;SDS011;11041;50.854;20.580;2023-05-07T02:34:31;1.80;;;1.70;;
21758;SDS011;11041;50.854;20.580;2023-05-07T02:36:57;1.88;;;1.63;;
21758;SDS011;11041;50.854;20.580;2023-05-07T02:39:24;1.88;;;1.73;;
21758;SDS011;11041;50.854;20.580;2023-05-07T02:41:51;2.75;;;1.70;;
21758;SDS011;11041;50.854;20.580;2023-05-07T02:44:17;2.55;;;2.03;;
21758;SDS011;11041;50.854;20.580;2023-05-07T02:46:43;1.73;;;1.63;;
21758;SDS011;11041;50.854;20.580;2023-05-07T02:49:10;2.67;;;1.80;;
21758;SDS011;11041;50.854;20.580;2023-05-07T02:51:36;2.10;;;1.92;;
21758;SDS011;11041;50.854;20.580;2023-05-07T02:54:03;4.80;;;2.00;;
21758;SDS011;11041;50.854;20.580;2023-05-07T02:56:30;2.22;;;1.90;;
21758;SDS011;11041;50.854;20.580;2023-05-07T02:58:57;2.63;;;1.95;;
21758;SDS011;11041;50.854;20.580;2023-05-07T03:01:23;2.63;;;1.90;;
21758;SDS011;11041;50.854;20.580;2023-05-07T03:03:50;2.40;;;2.05;;
21758;SDS011;11041;50.854;20.580;2023-05-07T03:06:17;1.80;;;1.70;;
21758;SDS011;11041;50.854;20.580;2023-05-07T03:08:43;3.65;;;2.00;;
21758;SDS011;11041;50.854;20.580;2023-05-07T03:11:09;1.95;;;1.85;;
21758;SDS011;11041;50.854;20.580;2023-05-07T03:13:36;2.10;;;1.73;;
21758;SDS011;11041;50.854;20.580;2023-05-07T03:16:02;2.53;;;2.28;;
21758;SDS011;11041;50.854;20.580;2023-05-07T03:18:29;2.13;;;1.95;;
21758;SDS011;11041;50.854;20.580;2023-05-07T03:20:56;1.92;;;1.55;;
21758;SDS011;11041;50.854;20.580;2023-05-07T03:23:22;1.65;;;1.50;;
21758;SDS011;11041;50.854;20.580;2023-05-07T03:25:49;2.28;;;1.70;;
21758;SDS011;11041;50.854;20.580;2023-05-07T03:28:15;2.60;;;1.77;;
21758;SDS011;11041;50.854;20.580;2023-05-07T03:30:42;2.38;;;2.08;;
21758;SDS011;11041;50.854;20.580;2023-05-07T03:33:08;1.60;;;1.50;;
21758;SDS011;11041;50.854;20.580;2023-05-07T03:35:35;4.63;;;1.85;;
21758;SDS011;11041;50.854;20.580;2023-05-07T03:38:01;1.85;;;1.75;;
21758;SDS011;11041;50.854;20.580;2023-05-07T03:40:28;1.40;;;1.30;;
21758;SDS011;11041;50.854;20.580;2023-05-07T03:42:55;2.15;;;1.90;;
21758;SDS011;11041;50.854;20.580;2023-05-07T03:45:21;2.03;;;1.80;;
21758;SDS011;11041;50.854;20.580;2023-05-07T03:47:48;3.42;;;1.85;;
21758;SDS011;11041;50.854;20.580;2023-05-07T03:50:14;2.75;;;1.80;;
21758;SDS011;11041;50.854;20.580;2023-05-07T03:52:41;1.90;;;1.80;;
21758;SDS011;11041;50.854;20.580;2023-05-07T03:55:07;2.03;;;1.83;;
21758;SDS011;11041;50.854;20.580;2023-05-07T03:57:34;1.80;;;1.60;;
21758;SDS011;11041;50.854;20.580;2023-05-07T04:00:01;1.60;;;1.50;;
21758;SDS011;11041;50.854;20.580;2023-05-07T04:02:29;2.13;;;1.65;;
21758;SDS011;11041;50.854;20.580;2023-05-07T04:04:55;3.25;;;1.95;;
21758;SDS011;11041;50.854;20.580;2023-05-07T04:07:22;3.80;;;1.85;;
21758;SDS011;11041;50.854;20.580;2023-05-07T04:09:48;2.80;;;2.10;;
21758;SDS011;11041;50.854;20.580;2023-05-07T04:12:15;2.33;;;2.03;;
21758;SDS011;11041;50.854;20.580;2023-05-07T04:14:41;2.22;;;1.88;;
21758;SDS011;11041;50.854;20.580;2023-05-07T04:17:08;2.05;;;1.85;;
21758;SDS011;11041;50.854;20.580;2023-05-07T04:19:36;2.38;;;1.75;;
21758;SDS011;11041;50.854;20.580;2023-05-07T04:22:03;2.08;;;1.85;;
21758;SDS011;11041;50.854;20.580;2023-05-07T04:24:32;4.38;;;1.95;;
21758;SDS011;11041;50.854;20.580;2023-05-07T04:26:58;1.60;;;1.50;;
21758;SDS011;11041;50.854;20.580;2023-05-07T04:29:25;1.40;;;1.30;;
21758;SDS011;11041;50.854;20.580;2023-05-07T04:31:51;2.60;;;1.40;;
21758;SDS011;11041;50.854;20.580;2023-05-07T04:34:18;1.70;;;1.60;;
21758;SDS011;11041;50.854;20.580;2023-05-07T04:36:44;1.70;;;1.38;;
21758;SDS011;11041;50.854;20.580;2023-05-07T04:39:11;1.50;;;1.40;;
21758;SDS011;11041;50.854;20.580;2023-05-07T04:41:38;1.83;;;1.58;;
21758;SDS011;11041;50.854;20.580;2023-05-07T04:44:05;1.58;;;1.45;;
21758;SDS011;11041;50.854;20.580;2023-05-07T04:46:32;2.10;;;1.90;;
21758;SDS011;11041;50.854;20.580;2023-05-07T04:48:58;1.90;;;1.80;;
21758;SDS011;11041;50.854;20.580;2023-05-07T04:51:25;3.03;;;1.85;;
21758;SDS011;11041;50.854;20.580;2023-05-07T04:53:51;1.95;;;1.77;;
21758;SDS011;11041;50.854;20.580;2023-05-07T04:56:18;3.67;;;2.03;;
21758;SDS011;11041;50.854;20.580;2023-05-07T04:58:44;5.72;;;2.10;;
21758;SDS011;11041;50.854;20.580;2023-05-07T05:01:11;2.13;;;1.90;;
21758;SDS011;11041;50.854;20.580;2023-05-07T05:03:37;2.22;;;1.85;;
21758;SDS011;11041;50.854;20.580;2023-05-07T05:06:05;2.50;;;1.88;;
21758;SDS011;11041;50.854;20.580;2023-05-07T05:08:31;2.38;;;1.95;;
21758;SDS011;11041;50.854;20.580;2023-05-07T05:10:58;1.80;;;1.65;;
21758;SDS011;11041;50.854;20.580;2023-05-07T05:13:27;2.75;;;1.50;;
21758;SDS011;11041;50.854;20.580;2023-05-07T05:15:54;1.80;;;1.70;;
21758;SDS011;11041;50.854;20.580;2023-05-07T05:18:21;2.30;;;1.80;;
21758;SDS011;11041;50.854;20.580;2023-05-07T05:20:48;3.20;;;2.00;;
21758;SDS011;11041;50.854;20.580;2023-05-07T05:23:15;2.08;;;1.88;;
21758;SDS011;11041;50.854;20.580;2023-05-07T05:25:42;2.97;;;1.75;;
21758;SDS011;11041;50.854;20.580;2023-05-07T05:28:08;2.60;;;1.55;;
21758;SDS011;11041;50.854;20.580;2023-05-07T05:30:35;2.35;;;1.80;;
21758;SDS011;11041;50.854;20.580;2023-05-07T05:33:02;4.90;;;1.83;;
21758;SDS011;11041;50.854;20.580;2023-05-07T05:35:29;2.20;;;2.00;;
21758;SDS011;11041;50.854;20.580;2023-05-07T05:37:56;1.90;;;1.80;;
21758;SDS011;11041;50.854;20.580;2023-05-07T05:40:22;1.63;;;1.52;;
21758;SDS011;11041;50.854;20.580;2023-05-07T05:42:49;2.13;;;1.92;;
21758;SDS011;11041;50.854;20.580;2023-05-07T05:45:15;2.05;;;1.85;;
21758;SDS011;11041;50.854;20.580;2023-05-07T05:47:43;2.17;;;1.92;;
21758;SDS011;11041;50.854;20.580;2023-05-07T05:50:09;2.58;;;2.38;;
21758;SDS011;11041;50.854;20.580;2023-05-07T05:52:36;2.10;;;1.90;;
21758;SDS011;11041;50.854;20.580;2023-05-07T05:55:02;2.20;;;2.00;;
21758;SDS011;11041;50.854;20.580;2023-05-07T05:57:29;2.50;;;2.28;;
21758;SDS011;11041;50.854;20.580;2023-05-07T05:59:56;3.55;;;2.38;;
21758;SDS011;11041;50.854;20.580;2023-05-07T06:02:23;3.65;;;2.33;;
21758;SDS011;11041;50.854;20.580;2023-05-07T06:04:50;2.80;;;2.45;;
21758;SDS011;11041;50.854;20.580;2023-05-07T06:07:16;3.20;;;2.90;;
21758;SDS011;11041;50.854;20.580;2023-05-07T06:09:42;5.57;;;2.75;;
21758;SDS011;11041;50.854;20.580;2023-05-07T06:12:09;3.20;;;2.92;;
21758;SDS011;11041;50.854;20.580;2023-05-07T06:14:36;2.85;;;2.55;;
21758;SDS011;11041;50.854;20.580;2023-05-07T06:17:02;4.45;;;2.90;;
21758;SDS011;11041;50.854;20.580;2023-05-07T06:19:29;3.20;;;2.92;;
21758;SDS011;11041;50.854;20.580;2023-05-07T06:21:56;4.28;;;3.50;;
21758;SDS011;11041;50.854;20.580;2023-05-07T06:24:23;7.05;;;6.22;;
21758;SDS011;11041;50.854;20.580;2023-05-07T06:26:50;2.97;;;2.67;;
21758;SDS011;11041;50.854;20.580;2023-05-07T06:29:19;7.82;;;4.68;;
21758;SDS011;11041;50.854;20.580;2023-05-07T06:31:46;2.67;;;2.47;;
21758;SDS011;11041;50.854;20.580;2023-05-07T06:34:12;3.78;;;2.80;;
21758;SDS011;11041;50.854;20.580;2023-05-07T06:36:41;5.00;;;2.50;;
21758;SDS011;11041;50.854;20.580;2023-05-07T06:39:08;3.53;;;2.78;;
21758;SDS011;11041;50.854;20.580;2023-05-07T06:41:34;3.25;;;2.95;;
21758;SDS011;11041;50.854;20.580;2023-05-07T06:44:01;3.83;;;2.90;;
21758;SDS011;11041;50.854;20.580;2023-05-07T06:46:28;2.60;;;2.40;;
21758;SDS011;11041;50.854;20.580;2023-05-07T06:48:55;2.15;;;2.00;;
21758;SDS011;11041;50.854;20.580;2023-05-07T06:51:22;2.28;;;2.15;;
21758;SDS011;11041;50.854;20.580;2023-05-07T06:53:49;2.80;;;2.50;;
21758;SDS011;11041;50.854;20.580;2023-05-07T06:56:15;2.40;;;2.20;;
21758;SDS011;11041;50.854;20.580;2023-05-07T06:58:42;2.83;;;2.55;;
21758;SDS011;11041;50.854;20.580;2023-05-07T07:01:08;5.35;;;3.10;;
21758;SDS011;11041;50.854;20.580;2023-05-07T07:03:35;3.67;;;3.20;;
21758;SDS011;11041;50.854;20.580;2023-05-07T07:06:01;4.38;;;3.15;;
21758;SDS011;11041;50.854;20.580;2023-05-07T07:08:28;2.40;;;2.03;;
21758;SDS011;11041;50.854;20.580;2023-05-07T07:10:55;2.03;;;1.83;;
21758;SDS011;11041;50.854;20.580;2023-05-07T07:13:21;4.95;;;2.00;;
21758;SDS011;11041;50.854;20.580;2023-05-07T07:15:48;3.72;;;1.80;;
21758;SDS011;11041;50.854;20.580;2023-05-07T07:18:15;3.15;;;1.80;;
21758;SDS011;11041;50.854;20.580;2023-05-07T07:20:41;2.20;;;2.00;;
21758;SDS011;11041;50.854;20.580;2023-05-07T07:23:10;2.83;;;1.67;;
21758;SDS011;11041;50.854;20.580;2023-05-07T07:25:36;3.25;;;1.77;;
21758;SDS011;11041;50.854;20.580;2023-05-07T07:28:03;1.70;;;1.60;;
21758;SDS011;11041;50.854;20.580;2023-05-07T07:30:29;1.70;;;1.50;;
21758;SDS011;11041;50.854;20.580;2023-05-07T07:32:56;1.77;;;1.60;;
21758;SDS011;11041;50.854;20.580;2023-05-07T07:35:28;1.55;;;1.40;;
21758;SDS011;11041;50.854;20.580;2023-05-07T07:37:55;2.05;;;1.70;;
21758;SDS011;11041;50.854;20.580;2023-05-07T07:40:22;2.45;;;1.83;;
21758;SDS011;11041;50.854;20.580;2023-05-07T07:42:49;1.60;;;1.50;;
21758;SDS011;11041;50.854;20.580;2023-05-07T07:45:16;1.63;;;1.40;;
21758;SDS011;11041;50.854;20.580;2023-05-07T07:47:42;1.80;;;1.58;;
21758;SDS011;11041;50.854;20.580;2023-05-07T07:50:09;1.85;;;1.73;;
21758;SDS011;11041;50.854;20.580;2023-05-07T07:52:36;1.77;;;1.67;;
21758;SDS011;11041;50.854;20.580;2023-05-07T07:55:03;2.40;;;2.05;;
21758;SDS011;11041;50.854;20.580;2023-05-07T07:57:31;3.55;;;2.38;;
21758;SDS011;11041;50.854;20.580;2023-05-07T07:59:57;2.20;;;1.92;;
21758;SDS011;11041;50.854;20.580;2023-05-07T08:02:24;1.75;;;1.52;;
21758;SDS011;11041;50.854;20.580;2023-05-07T08:04:50;1.67;;;1.58;;
21758;SDS011;11041;50.854;20.580;2023-05-07T08:07:17;2.30;;;1.77;;
21758;SDS011;11041;50.854;20.580;2023-05-07T08:09:46;2.10;;;1.70;;
21758;SDS011;11041;50.854;20.580;2023-05-07T08:12:13;1.90;;;1.70;;
21758;SDS011;11041;50.854;20.580;2023-05-07T08:14:40;2.05;;;1.75;;
21758;SDS011;11041;50.854;20.580;2023-05-07T08:17:07;5.78;;;3.38;;
21758;SDS011;11041;50.854;20.580;2023-05-07T08:19:34;2.75;;;2.03;;
21758;SDS011;11041;50.854;20.580;2023-05-07T08:22:02;3.55;;;2.50;;
21758;SDS011;11041;50.854;20.580;2023-05-07T08:24:30;2.28;;;1.85;;
21758;SDS011;11041;50.854;20.580;2023-05-07T08:26:57;2.20;;;1.85;;
21758;SDS011;11041;50.854;20.580;2023-05-07T08:29:27;2.80;;;2.30;;
21758;SDS011;11041;50.854;20.580;2023-05-07T08:31:53;3.53;;;2.78;;
21758;SDS011;11041;50.854;20.580;2023-05-07T08:34:21;5.30;;;2.75;;
21758;SDS011;11041;50.854;20.580;2023-05-07T08:36:48;2.63;;;1.90;;
21758;SDS011;11041;50.854;20.580;2023-05-07T08:39:15;2.15;;;1.95;;
21758;SDS011;11041;50.854;20.580;2023-05-07T08:41:45;1.70;;;1.60;;
21758;SDS011;11041;50.854;20.580;2023-05-07T08:44:14;2.13;;;1.80;;
21758;SDS011;11041;50.854;20.580;2023-05-07T08:46:46;3.88;;;2.38;;
21758;SDS011;11041;50.854;20.580;2023-05-07T08:49:17;4.32;;;2.70;;
21758;SDS011;11041;50.854;20.580;2023-05-07T08:51:43;3.97;;;2.50;;
21758;SDS011;11041;50.854;20.580;2023-05-07T08:54:10;3.47;;;1.92;;
21758;SDS011;11041;50.854;20.580;2023-05-07T08:56:41;2.78;;;2.30;;
21758;SDS011;11041;50.854;20.580;2023-05-07T08:59:08;3.38;;;3.03;;
21758;SDS011;11041;50.854;20.580;2023-05-07T09:01:34;2.42;;;1.92;;
21758;SDS011;11041;50.854;20.580;2023-05-07T09:04:01;2.22;;;2.03;;
21758;SDS011;11041;50.854;20.580;2023-05-07T09:06:28;2.72;;;2.22;;
21758;SDS011;11041;50.854;20.580;2023-05-07T09:08:55;3.95;;;2.50;;
21758;SDS011;11041;50.854;20.580;2023-05-07T09:11:23;2.50;;;2.20;;
21758;SDS011;11041;50.854;20.580;2023-05-07T09:13:54;2.72;;;2.33;;
21758;SDS011;11041;50.854;20.580;2023-05-07T09:16:23;2.20;;;2.00;;
21758;SDS011;11041;50.854;20.580;2023-05-07T09:18:51;3.05;;;2.20;;
21758;SDS011;11041;50.854;20.580;2023-05-07T09:21:20;2.97;;;1.83;;
21758;SDS011;11041;50.854;20.580;2023-05-07T09:23:50;2.33;;;2.20;;
21758;SDS011;11041;50.854;20.580;2023-05-07T09:26:19;3.42;;;3.13;;
21758;SDS011;11041;50.854;20.580;2023-05-07T09:28:48;3.28;;;2.30;;
21758;SDS011;11041;50.854;20.580;2023-05-07T09:31:15;3.30;;;2.70;;
21758;SDS011;11041;50.854;20.580;2023-05-07T09:33:42;3.78;;;2.83;;
21758;SDS011;11041;50.854;20.580;2023-05-07T09:36:09;2.83;;;2.40;;
21758;SDS011;11041;50.854;20.580;2023-05-07T09:38:36;2.80;;;2.50;;
21758;SDS011;11041;50.854;20.580;2023-05-07T09:41:11;2.50;;;2.38;;
21758;SDS011;11041;50.854;20.580;2023-05-07T09:43:39;4.18;;;3.67;;
21758;SDS011;11041;50.854;20.580;2023-05-07T09:46:12;5.25;;;3.72;;
21758;SDS011;11041;50.854;20.580;2023-05-07T09:48:41;4.88;;;3.33;;
21758;SDS011;11041;50.854;20.580;2023-05-07T09:51:18;5.78;;;4.10;;
21758;SDS011;11041;50.854;20.580;2023-05-07T09:53:57;5.70;;;4.13;;
21758;SDS011;11041;50.854;20.580;2023-05-07T09:56:27;5.07;;;3.15;;
21758;SDS011;11041;50.854;20.580;2023-05-07T09:58:57;2.67;;;2.47;;
21758;SDS011;11041;50.854;20.580;2023-05-07T10:01:27;3.78;;;3.42;;
21758;SDS011;11041;50.854;20.580;2023-05-07T10:03:56;3.88;;;2.20;;
21758;SDS011;11041;50.854;20.580;2023-05-07T10:06:25;3.03;;;2.60;;
21758;SDS011;11041;50.854;20.580;2023-05-07T10:08:52;3.00;;;2.00;;
21758;SDS011;11041;50.854;20.580;2023-05-07T10:11:20;2.50;;;2.30;;
21758;SDS011;11041;50.854;20.580;2023-05-07T10:13:48;3.00;;;2.80;;
21758;SDS011;11041;50.854;20.580;2023-05-07T10:16:18;5.00;;;4.07;;
21758;SDS011;11041;50.854;20.580;2023-05-07T10:18:46;6.10;;;3.05;;
21758;SDS011;11041;50.854;20.580;2023-05-07T10:21:17;3.03;;;2.80;;
21758;SDS011;11041;50.854;20.580;2023-05-07T10:23:50;3.20;;;2.85;;
21758;SDS011;11041;50.854;20.580;2023-05-07T10:26:56;4.03;;;3.42;;
21758;SDS011;11041;50.854;20.580;2023-05-07T10:32:40;8.43;;;5.07;;
21758;SDS011;11041;50.854;20.580;2023-05-07T10:35:24;8.80;;;6.05;;
21758;SDS011;11041;50.854;20.580;2023-05-07T10:37:57;6.70;;;4.40;;
21758;SDS011;11041;50.854;20.580;2023-05-07T10:40:24;5.13;;;3.70;;
21758;SDS011;11041;50.854;20.580;2023-05-07T10:42:57;8.25;;;3.15;;
21758;SDS011;11041;50.854;20.580;2023-05-07T10:45:26;4.28;;;3.50;;
21758;SDS011;11041;50.854;20.580;2023-05-07T10:50:43;2.97;;;2.78;;
21758;SDS011;11041;50.854;20.580;2023-05-07T10:55:43;4.13;;;3.22;;
21758;SDS011;11041;50.854;20.580;2023-05-07T10:58:28;4.75;;;3.30;;
21758;SDS011;11041;50.854;20.580;2023-05-07T11:01:00;4.43;;;4.03;;
21758;SDS011;11041;50.854;20.580;2023-05-07T11:03:28;4.57;;;3.97;;
21758;SDS011;11041;50.854;20.580;2023-05-07T11:17:10;6.15;;;5.13;;
21758;SDS011;11041;50.854;20.580;2023-05-07T11:19:48;7.22;;;6.03;;
21758;SDS011;11041;50.854;20.580;2023-05-07T11:25:06;7.35;;;6.65;;
21758;SDS011;11041;50.854;20.580;2023-05-07T11:27:33;8.65;;;7.60;;
21758;SDS011;11041;50.854;20.580;2023-05-07T11:30:00;8.82;;;7.97;;
21758;SDS011;11041;50.854;20.580;2023-05-07T11:32:27;26.92;;;22.42;;
21758;SDS011;11041;50.854;20.580;2023-05-07T11:34:56;14.80;;;13.23;;
21758;SDS011;11041;50.854;20.580;2023-05-07T11:37:25;20.77;;;17.25;;
21758;SDS011;11041;50.854;20.580;2023-05-07T11:40:07;27.38;;;24.50;;
21758;SDS011;11041;50.854;20.580;2023-05-07T11:42:36;20.83;;;18.50;;
21758;SDS011;11041;50.854;20.580;2023-05-07T11:45:05;10.80;;;8.52;;
21758;SDS011;11041;50.854;20.580;2023-05-07T11:47:33;14.43;;;11.63;;
21758;SDS011;11041;50.854;20.580;2023-05-07T11:50:04;11.00;;;8.65;;
21758;SDS011;11041;50.854;20.580;2023-05-07T11:52:33;11.57;;;9.38;;
21758;SDS011;11041;50.854;20.580;2023-05-07T11:55:01;8.25;;;6.53;;
21758;SDS011;11041;50.854;20.580;2023-05-07T11:57:32;9.18;;;6.50;;
21758;SDS011;11041;50.854;20.580;2023-05-07T12:00:00;9.85;;;8.63;;
21758;SDS011;11041;50.854;20.580;2023-05-07T12:02:29;13.77;;;9.82;;
21758;SDS011;11041;50.854;20.580;2023-05-07T12:04:57;8.30;;;6.45;;
21758;SDS011;11041;50.854;20.580;2023-05-07T12:07:26;9.52;;;8.57;;
21758;SDS011;11041;50.854;20.580;2023-05-07T12:09:53;8.77;;;6.78;;
21758;SDS011;11041;50.854;20.580;2023-05-07T12:12:19;39.50;;;29.35;;
21758;SDS011;11041;50.854;20.580;2023-05-07T12:14:46;22.80;;;14.48;;
21758;SDS011;11041;50.854;20.580;2023-05-07T12:17:14;11.30;;;10.10;;
21758;SDS011;11041;50.854;20.580;2023-05-07T12:19:43;11.23;;;10.13;;
21758;SDS011;11041;50.854;20.580;2023-05-07T12:22:11;7.40;;;6.60;;
21758;SDS011;11041;50.854;20.580;2023-05-07T12:27:16;11.27;;;7.82;;
21758;SDS011;11041;50.854;20.580;2023-05-07T12:29:47;9.38;;;7.78;;
21758;SDS011;11041;50.854;20.580;2023-05-07T12:32:17;9.32;;;7.53;;
21758;SDS011;11041;50.854;20.580;2023-05-07T12:34:51;8.95;;;8.05;;
21758;SDS011;11041;50.854;20.580;2023-05-07T12:37:22;8.40;;;7.18;;
21758;SDS011;11041;50.854;20.580;2023-05-07T12:40:09;9.45;;;8.23;;
21758;SDS011;11041;50.854;20.580;2023-05-07T12:42:37;9.93;;;7.72;;
21758;SDS011;11041;50.854;20.580;2023-05-07T12:45:09;8.25;;;7.38;;
21758;SDS011;11041;50.854;20.580;2023-05-07T12:47:45;9.48;;;7.07;;
21758;SDS011;11041;50.854;20.580;2023-05-07T12:50:13;8.80;;;7.53;;
21758;SDS011;11041;50.854;20.580;2023-05-07T12:52:41;8.05;;;7.25;;
21758;SDS011;11041;50.854;20.580;2023-05-07T12:55:14;8.85;;;6.70;;
21758;SDS011;11041;50.854;20.580;2023-05-07T12:57:48;8.23;;;6.97;;
21758;SDS011;11041;50.854;20.580;2023-05-07T13:00:17;8.15;;;6.82;;
21758;SDS011;11041;50.854;20.580;2023-05-07T13:02:58;15.68;;;12.32;;
21758;SDS011;11041;50.854;20.580;2023-05-07T13:05:24;10.77;;;7.93;;
21758;SDS011;11041;50.854;20.580;2023-05-07T13:07:54;8.18;;;7.30;;
21758;SDS011;11041;50.854;20.580;2023-05-07T13:10:22;7.70;;;6.88;;
21758;SDS011;11041;50.854;20.580;2023-05-07T13:12:49;9.50;;;8.00;;
21758;SDS011;11041;50.854;20.580;2023-05-07T13:15:17;11.30;;;8.77;;
21758;SDS011;11041;50.854;20.580;2023-05-07T13:17:44;8.77;;;7.20;;
21758;SDS011;11041;50.854;20.580;2023-05-07T13:20:11;9.60;;;7.43;;
21758;SDS011;11041;50.854;20.580;2023-05-07T13:22:40;9.75;;;7.13;;
21758;SDS011;11041;50.854;20.580;2023-05-07T13:25:07;8.18;;;7.30;;
21758;SDS011;11041;50.854;20.580;2023-05-07T13:27:34;7.78;;;6.25;;
21758;SDS011;11041;50.854;20.580;2023-05-07T13:30:03;8.73;;;6.43;;
21758;SDS011;11041;50.854;20.580;2023-05-07T13:32:30;7.35;;;6.18;;
21758;SDS011;11041;50.854;20.580;2023-05-07T13:34:58;9.30;;;7.75;;
21758;SDS011;11041;50.854;20.580;2023-05-07T13:37:28;9.05;;;6.60;;
21758;SDS011;11041;50.854;20.580;2023-05-07T13:39:55;8.13;;;6.03;;
21758;SDS011;11041;50.854;20.580;2023-05-07T13:42:21;6.97;;;5.57;;
21758;SDS011;11041;50.854;20.580;2023-05-07T13:44:48;7.80;;;6.03;;
21758;SDS011;11041;50.854;20.580;2023-05-07T13:47:15;8.38;;;6.85;;
21758;SDS011;11041;50.854;20.580;2023-05-07T13:49:42;6.13;;;5.53;;
21758;SDS011;11041;50.854;20.580;2023-05-07T13:52:08;6.00;;;5.28;;
21758;SDS011;11041;50.854;20.580;2023-05-07T13:54:38;9.85;;;8.05;;
21758;SDS011;11041;50.854;20.580;2023-05-07T13:57:04;5.45;;;4.70;;
21758;SDS011;11041;50.854;20.580;2023-05-07T13:59:31;11.60;;;9.10;;
21758;SDS011;11041;50.854;20.580;2023-05-07T14:01:58;7.55;;;6.70;;
21758;SDS011;11041;50.854;20.580;2023-05-07T14:04:25;6.78;;;5.13;;
21758;SDS011;11041;50.854;20.580;2023-05-07T14:06:52;6.82;;;5.57;;
21758;SDS011;11041;50.854;20.580;2023-05-07T14:09:18;5.68;;;5.13;;
21758;SDS011;11041;50.854;20.580;2023-05-07T14:11:46;6.20;;;5.60;;
21758;SDS011;11041;50.854;20.580;2023-05-07T14:14:17;6.88;;;5.57;;
21758;SDS011;11041;50.854;20.580;2023-05-07T14:16:44;7.90;;;6.40;;
21758;SDS011;11041;50.854;20.580;2023-05-07T14:19:11;7.35;;;5.60;;
21758;SDS011;11041;50.854;20.580;2023-05-07T14:21:41;6.78;;;5.43;;
21758;SDS011;11041;50.854;20.580;2023-05-07T14:24:08;7.20;;;5.55;;
21758;SDS011;11041;50.854;20.580;2023-05-07T14:26:34;4.90;;;4.40;;
21758;SDS011;11041;50.854;20.580;2023-05-07T14:29:02;4.80;;;4.30;;
21758;SDS011;11041;50.854;20.580;2023-05-07T14:31:28;5.00;;;4.50;;
21758;SDS011;11041;50.854;20.580;2023-05-07T14:33:55;5.38;;;4.70;;
21758;SDS011;11041;50.854;20.580;2023-05-07T14:36:23;5.85;;;4.70;;
21758;SDS011;11041;50.854;20.580;2023-05-07T14:38:58;5.95;;;4.97;;
21758;SDS011;11041;50.854;20.580;2023-05-07T14:41:24;4.88;;;4.10;;
21758;SDS011;11041;50.854;20.580;2023-05-07T14:43:51;5.13;;;3.97;;
21758;SDS011;11041;50.854;20.580;2023-05-07T14:46:18;6.25;;;5.10;;
21758;SDS011;11041;50.854;20.580;2023-05-07T14:49:05;8.70;;;5.85;;
21758;SDS011;11041;50.854;20.580;2023-05-07T14:52:20;5.97;;;4.88;;
21758;SDS011;11041;50.854;20.580;2023-05-07T14:55:40;6.00;;;5.38;;
21758;SDS011;11041;50.854;20.580;2023-05-07T14:58:12;5.00;;;4.50;;
21758;SDS011;11041;50.854;20.580;2023-05-07T15:00:42;5.05;;;3.50;;
21758;SDS011;11041;50.854;20.580;2023-05-07T15:03:14;5.22;;;3.83;;
21758;SDS011;11041;50.854;20.580;2023-05-07T15:05:45;3.72;;;3.33;;